Columbus Municipal Airport
KOLU : rendu visible

Aérodrome :











RETROUVEZ-NOUS SUR...

 
LOGIN :

S'inscrire | Disclaimer

   EN    FR    IT 

 









Légende :    VFR   VFR Marginal   IFR   IFR Intensif   IFR Très Intensif
Visi : 
Plafond : 
>= 8 km
>= 3000ft
5 à 8 km
1000 à 3000 ft
1500m à 5 km
500 à 1000 ft
800 à 1500m
200 à 500 ft
< 800m
< 200 ft
Symboles :   Orages  Brouillard  Fortes neiges  Fortes précipitations  Vent > 20 kt






- Altitude de l'aérodrome : 1447 ft


KOLU - Columbus Municipal

DERNIER METAR :
  • 072356Z AUTO 16015G21KT 10SM FEW025 28/23 A2988 RMK AO2 SLP108 T02780228 10294 20272 55006

METARs EXPIRÉS :
  • 072335Z AUTO 16012G21KT 10SM SCT025 28/23 A2988 RMK AO2
  • 072318Z AUTO 15012G22KT 10SM BKN025 BKN031 28/23 A2989 RMK AO2
  • 072311Z AUTO 15014G22KT 10SM SCT025 BKN031 28/23 A2989 RMK AO2
  • 072256Z AUTO 15015G22KT 10SM BKN029 28/23 A2988 RMK AO2 SLP107 T02830228
  • 072213Z AUTO 15016KT 10SM BKN025 BKN034 28/23 A2988 RMK AO2
  • 072156Z AUTO 15014KT 10SM SCT025 BKN032 BKN039 28/23 A2989 RMK AO2 SLP111 T02830233
  • 072130Z AUTO 16011KT 10SM FEW023 OVC032 28/23 A2990 RMK AO2

TAF N/A
FIR KZMP / Amérique du Nord



MET'MAP, la Météo Aéronautique d'un coup d'oeil ! - Copyright ORBIFLY Décembre 2007 - Disclaimer

ORBIFLY MET'MAP TEAM :

Programmation & Développement : Alexandra Zaïnal
Sur une idée originale de : Baudouin d'Aumeries
Assistance à la programmation : Marc-Olivier Méhu
Soutien technique & logistique : Manuel Goepfert

Contact : metmap@orbifly.com




SOURCES & CREDITS :

   NOAA       Earth
Advisory